sensor_id;sensor_type;location;lat;lon;timestamp;temperature;humidity
52965;DHT22;42923;53.220;6.528;2023-06-26T00:01:24;22.10;99.90
52965;DHT22;42923;53.220;6.528;2023-06-26T00:03:49;22.10;99.90
52965;DHT22;42923;53.220;6.528;2023-06-26T00:06:15;22.10;99.90
52965;DHT22;42923;53.220;6.528;2023-06-26T00:08:41;22.20;99.90
52965;DHT22;42923;53.220;6.528;2023-06-26T00:11:06;22.20;99.90
52965;DHT22;42923;53.220;6.528;2023-06-26T00:13:34;22.20;99.90
52965;DHT22;42923;53.220;6.528;2023-06-26T00:15:59;22.30;99.90
52965;DHT22;42923;53.220;6.528;2023-06-26T00:18:28;22.30;99.90
52965;DHT22;42923;53.220;6.528;2023-06-26T00:20:54;22.30;99.90
52965;DHT22;42923;53.220;6.528;2023-06-26T00:23:20;22.30;99.90
52965;DHT22;42923;53.220;6.528;2023-06-26T00:25:46;22.30;99.90
52965;DHT22;42923;53.220;6.528;2023-06-26T00:28:12;22.40;99.90
52965;DHT22;42923;53.220;6.528;2023-06-26T00:30:38;22.40;99.90
52965;DHT22;42923;53.220;6.528;2023-06-26T00:33:03;22.40;99.90
52965;DHT22;42923;53.220;6.528;2023-06-26T00:35:30;22.40;99.90
52965;DHT22;42923;53.220;6.528;2023-06-26T00:37:56;22.40;99.90
52965;DHT22;42923;53.220;6.528;2023-06-26T00:40:22;22.40;99.90
52965;DHT22;42923;53.220;6.528;2023-06-26T00:42:48;22.50;99.90
52965;DHT22;42923;53.220;6.528;2023-06-26T00:45:14;22.50;99.90
52965;DHT22;42923;53.220;6.528;2023-06-26T00:47:40;22.60;99.90
52965;DHT22;42923;53.220;6.528;2023-06-26T00:50:06;22.60;99.90
52965;DHT22;42923;53.220;6.528;2023-06-26T00:52:32;22.70;99.90
52965;DHT22;42923;53.220;6.528;2023-06-26T00:54:59;22.70;99.90
52965;DHT22;42923;53.220;6.528;2023-06-26T00:57:25;22.60;99.90
52965;DHT22;42923;53.220;6.528;2023-06-26T00:59:53;22.60;99.90
52965;DHT22;42923;53.220;6.528;2023-06-26T01:02:20;22.60;99.90
52965;DHT22;42923;53.220;6.528;2023-06-26T01:04:48;22.60;99.90
52965;DHT22;42923;53.220;6.528;2023-06-26T01:07:15;22.70;99.90
52965;DHT22;42923;53.220;6.528;2023-06-26T01:09:46;22.70;99.90
52965;DHT22;42923;53.220;6.528;2023-06-26T01:12:12;22.60;99.90
52965;DHT22;42923;53.220;6.528;2023-06-26T01:14:38;22.60;99.90
52965;DHT22;42923;53.220;6.528;2023-06-26T01:17:04;22.60;99.90
52965;DHT22;42923;53.220;6.528;2023-06-26T01:19:32;22.50;99.90
52965;DHT22;42923;53.220;6.528;2023-06-26T01:22:25;22.50;99.90
52965;DHT22;42923;53.220;6.528;2023-06-26T01:27:50;22.60;99.90
52965;DHT22;42923;53.220;6.528;2023-06-26T01:30:16;22.60;99.90
52965;DHT22;42923;53.220;6.528;2023-06-26T01:32:44;22.60;99.90
52965;DHT22;42923;53.220;6.528;2023-06-26T01:35:11;22.50;99.90
52965;DHT22;42923;53.220;6.528;2023-06-26T01:37:37;22.50;99.90
52965;DHT22;42923;53.220;6.528;2023-06-26T01:40:03;22.50;99.90
52965;DHT22;42923;53.220;6.528;2023-06-26T01:42:35;22.50;99.90
52965;DHT22;42923;53.220;6.528;2023-06-26T01:45:19;22.50;99.90
52965;DHT22;42923;53.220;6.528;2023-06-26T01:47:50;22.50;99.90
52965;DHT22;42923;53.220;6.528;2023-06-26T01:50:21;22.40;99.90
52965;DHT22;42923;53.220;6.528;2023-06-26T01:52:57;22.50;99.90
52965;DHT22;42923;53.220;6.528;2023-06-26T01:58:06;22.40;99.90
52965;DHT22;42923;53.220;6.528;2023-06-26T02:00:32;22.40;99.90
52965;DHT22;42923;53.220;6.528;2023-06-26T02:02:59;22.30;99.90
52965;DHT22;42923;53.220;6.528;2023-06-26T02:05:24;22.30;99.90
52965;DHT22;42923;53.220;6.528;2023-06-26T02:07:50;22.20;99.90
52965;DHT22;42923;53.220;6.528;2023-06-26T02:10:17;22.20;99.90
52965;DHT22;42923;53.220;6.528;2023-06-26T02:12:44;22.20;99.90
52965;DHT22;42923;53.220;6.528;2023-06-26T02:15:12;22.20;99.90
52965;DHT22;42923;53.220;6.528;2023-06-26T02:17:38;22.10;99.90
52965;DHT22;42923;53.220;6.528;2023-06-26T02:20:05;22.10;99.90
52965;DHT22;42923;53.220;6.528;2023-06-26T02:22:31;22.00;99.90
52965;DHT22;42923;53.220;6.528;2023-06-26T02:24:57;22.00;99.90
52965;DHT22;42923;53.220;6.528;2023-06-26T02:27:23;21.90;99.90
52965;DHT22;42923;53.220;6.528;2023-06-26T02:29:48;21.80;99.90
52965;DHT22;42923;53.220;6.528;2023-06-26T02:32:14;21.80;99.90
52965;DHT22;42923;53.220;6.528;2023-06-26T02:34:41;21.70;99.90
52965;DHT22;42923;53.220;6.528;2023-06-26T02:37:06;21.60;99.90
52965;DHT22;42923;53.220;6.528;2023-06-26T02:39:34;21.60;99.90
52965;DHT22;42923;53.220;6.528;2023-06-26T02:42:00;21.50;99.90
52965;DHT22;42923;53.220;6.528;2023-06-26T02:44:26;21.40;99.90
52965;DHT22;42923;53.220;6.528;2023-06-26T02:46:53;21.30;99.90
52965;DHT22;42923;53.220;6.528;2023-06-26T02:49:18;21.20;99.90
52965;DHT22;42923;53.220;6.528;2023-06-26T02:51:45;21.10;99.90
52965;DHT22;42923;53.220;6.528;2023-06-26T02:54:22;21.00;99.90
52965;DHT22;42923;53.220;6.528;2023-06-26T02:56:51;20.90;99.90
52965;DHT22;42923;53.220;6.528;2023-06-26T02:59:23;20.90;99.90
52965;DHT22;42923;53.220;6.528;2023-06-26T03:01:49;20.80;99.90
52965;DHT22;42923;53.220;6.528;2023-06-26T03:04:15;20.70;99.90
52965;DHT22;42923;53.220;6.528;2023-06-26T03:06:42;20.60;99.90
52965;DHT22;42923;53.220;6.528;2023-06-26T03:09:08;20.60;99.90
52965;DHT22;42923;53.220;6.528;2023-06-26T03:11:33;20.60;99.90
52965;DHT22;42923;53.220;6.528;2023-06-26T03:13:59;20.50;99.90
52965;DHT22;42923;53.220;6.528;2023-06-26T03:16:26;20.50;99.90
52965;DHT22;42923;53.220;6.528;2023-06-26T03:18:51;20.50;99.90
52965;DHT22;42923;53.220;6.528;2023-06-26T03:21:17;20.50;99.90
52965;DHT22;42923;53.220;6.528;2023-06-26T03:23:43;20.40;99.90
52965;DHT22;42923;53.220;6.528;2023-06-26T03:26:09;20.40;99.90
52965;DHT22;42923;53.220;6.528;2023-06-26T03:28:36;20.40;99.90
52965;DHT22;42923;53.220;6.528;2023-06-26T03:31:02;20.40;99.90
52965;DHT22;42923;53.220;6.528;2023-06-26T03:33:28;20.40;99.90
52965;DHT22;42923;53.220;6.528;2023-06-26T03:35:55;20.40;99.90
52965;DHT22;42923;53.220;6.528;2023-06-26T03:38:21;20.40;99.90
52965;DHT22;42923;53.220;6.528;2023-06-26T03:40:47;20.40;99.90
52965;DHT22;42923;53.220;6.528;2023-06-26T03:43:13;20.50;99.90
52965;DHT22;42923;53.220;6.528;2023-06-26T03:45:49;20.50;99.90
52965;DHT22;42923;53.220;6.528;2023-06-26T03:48:15;20.60;99.90
52965;DHT22;42923;53.220;6.528;2023-06-26T03:50:41;20.70;99.90
52965;DHT22;42923;53.220;6.528;2023-06-26T03:53:07;20.70;99.90
52965;DHT22;42923;53.220;6.528;2023-06-26T03:55:32;20.80;99.90
52965;DHT22;42923;53.220;6.528;2023-06-26T03:57:59;20.70;99.90
52965;DHT22;42923;53.220;6.528;2023-06-26T04:00:26;20.80;99.90
52965;DHT22;42923;53.220;6.528;2023-06-26T04:02:53;20.80;99.90
52965;DHT22;42923;53.220;6.528;2023-06-26T04:05:19;20.80;99.90
52965;DHT22;42923;53.220;6.528;2023-06-26T04:07:45;20.80;99.90
52965;DHT22;42923;53.220;6.528;2023-06-26T04:10:10;20.80;99.90
52965;DHT22;42923;53.220;6.528;2023-06-26T04:12:36;20.80;99.90
52965;DHT22;42923;53.220;6.528;2023-06-26T04:15:02;20.80;99.90
52965;DHT22;42923;53.220;6.528;2023-06-26T04:17:28;20.80;99.90
52965;DHT22;42923;53.220;6.528;2023-06-26T04:19:54;20.80;99.90
52965;DHT22;42923;53.220;6.528;2023-06-26T04:22:19;20.80;99.90
52965;DHT22;42923;53.220;6.528;2023-06-26T04:24:45;20.90;99.90
52965;DHT22;42923;53.220;6.528;2023-06-26T04:27:11;20.90;99.90
52965;DHT22;42923;53.220;6.528;2023-06-26T04:29:39;21.00;99.90
52965;DHT22;42923;53.220;6.528;2023-06-26T04:32:05;21.10;99.90
52965;DHT22;42923;53.220;6.528;2023-06-26T04:34:32;21.20;99.90
52965;DHT22;42923;53.220;6.528;2023-06-26T04:36:59;21.40;99.90
52965;DHT22;42923;53.220;6.528;2023-06-26T04:39:25;21.50;99.90
52965;DHT22;42923;53.220;6.528;2023-06-26T04:41:51;21.60;99.90
52965;DHT22;42923;53.220;6.528;2023-06-26T04:44:16;21.70;99.90
52965;DHT22;42923;53.220;6.528;2023-06-26T04:46:42;21.80;99.90
52965;DHT22;42923;53.220;6.528;2023-06-26T04:49:08;21.80;99.90
52965;DHT22;42923;53.220;6.528;2023-06-26T04:51:35;21.90;99.90
52965;DHT22;42923;53.220;6.528;2023-06-26T04:54:07;21.90;99.90
52965;DHT22;42923;53.220;6.528;2023-06-26T04:56:33;21.90;99.90
52965;DHT22;42923;53.220;6.528;2023-06-26T04:58:59;21.80;99.90
52965;DHT22;42923;53.220;6.528;2023-06-26T05:01:24;21.70;99.90
52965;DHT22;42923;53.220;6.528;2023-06-26T05:03:50;21.60;99.90
52965;DHT22;42923;53.220;6.528;2023-06-26T05:06:16;21.50;99.90
52965;DHT22;42923;53.220;6.528;2023-06-26T05:08:41;21.40;99.90
52965;DHT22;42923;53.220;6.528;2023-06-26T05:11:07;21.40;99.90
52965;DHT22;42923;53.220;6.528;2023-06-26T05:13:33;21.30;99.90
52965;DHT22;42923;53.220;6.528;2023-06-26T05:15:58;21.20;99.90
52965;DHT22;42923;53.220;6.528;2023-06-26T05:18:24;21.10;99.90
52965;DHT22;42923;53.220;6.528;2023-06-26T05:20:50;21.10;99.90
52965;DHT22;42923;53.220;6.528;2023-06-26T05:23:16;21.00;99.90
52965;DHT22;42923;53.220;6.528;2023-06-26T05:25:42;20.90;99.90
52965;DHT22;42923;53.220;6.528;2023-06-26T05:28:08;20.90;99.90
52965;DHT22;42923;53.220;6.528;2023-06-26T05:30:37;20.80;99.90
52965;DHT22;42923;53.220;6.528;2023-06-26T05:33:03;20.70;99.90
52965;DHT22;42923;53.220;6.528;2023-06-26T05:35:31;20.70;99.90
52965;DHT22;42923;53.220;6.528;2023-06-26T05:37:58;20.60;99.90
52965;DHT22;42923;53.220;6.528;2023-06-26T05:40:24;20.50;99.90
52965;DHT22;42923;53.220;6.528;2023-06-26T05:42:50;20.40;99.90
52965;DHT22;42923;53.220;6.528;2023-06-26T05:45:16;20.30;99.90
52965;DHT22;42923;53.220;6.528;2023-06-26T05:47:42;20.30;99.90
52965;DHT22;42923;53.220;6.528;2023-06-26T05:50:09;20.30;99.90
52965;DHT22;42923;53.220;6.528;2023-06-26T05:52:35;20.20;99.90
52965;DHT22;42923;53.220;6.528;2023-06-26T05:55:02;20.20;99.90
52965;DHT22;42923;53.220;6.528;2023-06-26T05:57:29;20.10;99.90
52965;DHT22;42923;53.220;6.528;2023-06-26T05:59:56;20.10;99.90
52965;DHT22;42923;53.220;6.528;2023-06-26T06:02:22;20.00;99.90
52965;DHT22;42923;53.220;6.528;2023-06-26T06:04:48;20.10;99.90
52965;DHT22;42923;53.220;6.528;2023-06-26T06:07:14;20.20;99.90
52965;DHT22;42923;53.220;6.528;2023-06-26T06:09:40;20.30;99.90
52965;DHT22;42923;53.220;6.528;2023-06-26T06:12:07;20.40;99.90
52965;DHT22;42923;53.220;6.528;2023-06-26T06:14:33;20.50;99.90
52965;DHT22;42923;53.220;6.528;2023-06-26T06:16:59;20.50;99.90
52965;DHT22;42923;53.220;6.528;2023-06-26T06:19:25;20.40;99.90
52965;DHT22;42923;53.220;6.528;2023-06-26T06:21:51;20.30;99.90
52965;DHT22;42923;53.220;6.528;2023-06-26T06:24:17;20.20;99.90
52965;DHT22;42923;53.220;6.528;2023-06-26T06:26:42;20.20;99.90
52965;DHT22;42923;53.220;6.528;2023-06-26T06:29:08;20.20;99.90
52965;DHT22;42923;53.220;6.528;2023-06-26T06:31:34;20.10;99.90
52965;DHT22;42923;53.220;6.528;2023-06-26T06:34:00;20.10;99.90
52965;DHT22;42923;53.220;6.528;2023-06-26T06:36:25;20.20;99.90
52965;DHT22;42923;53.220;6.528;2023-06-26T06:38:51;20.20;99.90
52965;DHT22;42923;53.220;6.528;2023-06-26T06:41:17;20.30;99.90
52965;DHT22;42923;53.220;6.528;2023-06-26T06:43:43;20.30;99.90
52965;DHT22;42923;53.220;6.528;2023-06-26T06:46:09;20.40;99.90
52965;DHT22;42923;53.220;6.528;2023-06-26T06:48:34;20.80;99.90
52965;DHT22;42923;53.220;6.528;2023-06-26T06:51:00;20.80;99.90
52965;DHT22;42923;53.220;6.528;2023-06-26T06:53:26;20.80;99.90
52965;DHT22;42923;53.220;6.528;2023-06-26T06:55:52;20.80;99.90
52965;DHT22;42923;53.220;6.528;2023-06-26T06:58:18;20.80;99.90
52965;DHT22;42923;53.220;6.528;2023-06-26T07:00:46;20.80;99.90
52965;DHT22;42923;53.220;6.528;2023-06-26T07:03:12;20.90;99.90
52965;DHT22;42923;53.220;6.528;2023-06-26T07:05:38;21.00;99.90
52965;DHT22;42923;53.220;6.528;2023-06-26T07:08:03;21.10;99.90
52965;DHT22;42923;53.220;6.528;2023-06-26T07:10:29;21.20;99.90
52965;DHT22;42923;53.220;6.528;2023-06-26T07:12:55;21.20;99.90
52965;DHT22;42923;53.220;6.528;2023-06-26T07:15:21;21.20;99.90
52965;DHT22;42923;53.220;6.528;2023-06-26T07:17:47;21.30;99.90
52965;DHT22;42923;53.220;6.528;2023-06-26T07:20:13;21.30;99.90
52965;DHT22;42923;53.220;6.528;2023-06-26T07:22:41;21.30;99.90
52965;DHT22;42923;53.220;6.528;2023-06-26T07:25:08;21.30;99.90
52965;DHT22;42923;53.220;6.528;2023-06-26T07:27:37;21.30;99.90
52965;DHT22;42923;53.220;6.528;2023-06-26T07:30:03;21.40;99.90
52965;DHT22;42923;53.220;6.528;2023-06-26T07:32:29;21.50;99.90
52965;DHT22;42923;53.220;6.528;2023-06-26T07:34:55;21.50;99.90
52965;DHT22;42923;53.220;6.528;2023-06-26T07:37:21;21.50;99.90
52965;DHT22;42923;53.220;6.528;2023-06-26T07:39:48;21.50;99.90
52965;DHT22;42923;53.220;6.528;2023-06-26T07:42:14;21.60;99.90
52965;DHT22;42923;53.220;6.528;2023-06-26T07:44:42;21.60;99.90
52965;DHT22;42923;53.220;6.528;2023-06-26T07:47:08;21.80;99.90
52965;DHT22;42923;53.220;6.528;2023-06-26T07:49:33;21.80;99.90
52965;DHT22;42923;53.220;6.528;2023-06-26T07:51:59;21.80;99.90
52965;DHT22;42923;53.220;6.528;2023-06-26T07:54:25;21.80;99.90
52965;DHT22;42923;53.220;6.528;2023-06-26T07:56:58;21.80;99.90
52965;DHT22;42923;53.220;6.528;2023-06-26T07:59:26;21.80;99.90
52965;DHT22;42923;53.220;6.528;2023-06-26T08:01:53;22.00;99.90
52965;DHT22;42923;53.220;6.528;2023-06-26T08:04:20;22.10;99.90
52965;DHT22;42923;53.220;6.528;2023-06-26T08:06:50;22.10;99.90
52965;DHT22;42923;53.220;6.528;2023-06-26T08:09:17;22.00;99.90
52965;DHT22;42923;53.220;6.528;2023-06-26T08:11:44;22.10;99.90
52965;DHT22;42923;53.220;6.528;2023-06-26T08:14:10;22.10;99.90
52965;DHT22;42923;53.220;6.528;2023-06-26T08:16:41;21.90;99.90
52965;DHT22;42923;53.220;6.528;2023-06-26T08:19:07;21.80;99.90
52965;DHT22;42923;53.220;6.528;2023-06-26T08:21:34;21.70;99.90
52965;DHT22;42923;53.220;6.528;2023-06-26T08:23:59;21.90;99.90
52965;DHT22;42923;53.220;6.528;2023-06-26T08:26:25;22.10;99.90
52965;DHT22;42923;53.220;6.528;2023-06-26T08:28:51;22.40;99.90
52965;DHT22;42923;53.220;6.528;2023-06-26T08:31:17;22.50;99.90
52965;DHT22;42923;53.220;6.528;2023-06-26T08:33:43;22.40;99.90
52965;DHT22;42923;53.220;6.528;2023-06-26T08:36:09;22.30;99.90
52965;DHT22;42923;53.220;6.528;2023-06-26T08:38:35;22.20;99.90
52965;DHT22;42923;53.220;6.528;2023-06-26T08:41:00;22.00;99.90
52965;DHT22;42923;53.220;6.528;2023-06-26T08:43:26;21.90;99.90
52965;DHT22;42923;53.220;6.528;2023-06-26T08:45:53;22.00;99.90
52965;DHT22;42923;53.220;6.528;2023-06-26T08:48:21;22.10;99.90
52965;DHT22;42923;53.220;6.528;2023-06-26T08:50:52;22.20;99.90
52965;DHT22;42923;53.220;6.528;2023-06-26T08:53:37;22.10;99.90
52965;DHT22;42923;53.220;6.528;2023-06-26T08:56:07;22.10;99.90
52965;DHT22;42923;53.220;6.528;2023-06-26T08:58:34;22.30;99.90
52965;DHT22;42923;53.220;6.528;2023-06-26T09:01:02;22.50;99.90
52965;DHT22;42923;53.220;6.528;2023-06-26T09:03:30;22.60;99.90
52965;DHT22;42923;53.220;6.528;2023-06-26T09:05:56;22.70;99.90
52965;DHT22;42923;53.220;6.528;2023-06-26T09:08:21;22.70;99.90
52965;DHT22;42923;53.220;6.528;2023-06-26T09:10:47;22.90;99.90
52965;DHT22;42923;53.220;6.528;2023-06-26T09:13:13;23.10;99.90
52965;DHT22;42923;53.220;6.528;2023-06-26T09:15:42;23.20;99.90
52965;DHT22;42923;53.220;6.528;2023-06-26T09:18:08;23.10;99.90
52965;DHT22;42923;53.220;6.528;2023-06-26T09:20:34;23.00;99.90
52965;DHT22;42923;53.220;6.528;2023-06-26T09:23:00;23.10;99.90
52965;DHT22;42923;53.220;6.528;2023-06-26T09:25:27;23.30;99.90
52965;DHT22;42923;53.220;6.528;2023-06-26T09:27:53;23.30;99.90
52965;DHT22;42923;53.220;6.528;2023-06-26T09:30:19;23.10;99.90
52965;DHT22;42923;53.220;6.528;2023-06-26T09:32:45;23.00;99.90
52965;DHT22;42923;53.220;6.528;2023-06-26T09:35:11;22.80;99.90
52965;DHT22;42923;53.220;6.528;2023-06-26T09:37:37;22.80;99.90
52965;DHT22;42923;53.220;6.528;2023-06-26T09:40:04;22.90;99.90
52965;DHT22;42923;53.220;6.528;2023-06-26T09:42:30;23.10;99.90
52965;DHT22;42923;53.220;6.528;2023-06-26T09:44:56;23.50;99.90
52965;DHT22;42923;53.220;6.528;2023-06-26T09:47:23;23.80;99.90
52965;DHT22;42923;53.220;6.528;2023-06-26T09:49:49;23.80;99.90
52965;DHT22;42923;53.220;6.528;2023-06-26T09:52:16;23.80;99.90
52965;DHT22;42923;53.220;6.528;2023-06-26T09:54:43;23.80;99.90
52965;DHT22;42923;53.220;6.528;2023-06-26T09:57:13;23.80;99.90
52965;DHT22;42923;53.220;6.528;2023-06-26T09:59:41;24.00;99.90
52965;DHT22;42923;53.220;6.528;2023-06-26T10:02:07;24.20;99.90
52965;DHT22;42923;53.220;6.528;2023-06-26T10:04:34;24.30;99.90
52965;DHT22;42923;53.220;6.528;2023-06-26T10:07:02;24.30;99.90
52965;DHT22;42923;53.220;6.528;2023-06-26T10:09:30;24.50;99.90
52965;DHT22;42923;53.220;6.528;2023-06-26T10:12:02;24.60;99.90
52965;DHT22;42923;53.220;6.528;2023-06-26T10:14:35;24.80;99.90
52965;DHT22;42923;53.220;6.528;2023-06-26T10:17:06;24.80;99.90
52965;DHT22;42923;53.220;6.528;2023-06-26T10:19:33;24.70;99.90
52965;DHT22;42923;53.220;6.528;2023-06-26T10:22:02;24.70;99.90
52965;DHT22;42923;53.220;6.528;2023-06-26T10:24:31;24.70;99.90
52965;DHT22;42923;53.220;6.528;2023-06-26T10:27:24;24.70;99.90
52965;DHT22;42923;53.220;6.528;2023-06-26T10:29:56;24.90;99.90
52965;DHT22;42923;53.220;6.528;2023-06-26T10:32:25;25.10;99.90
52965;DHT22;42923;53.220;6.528;2023-06-26T10:34:52;24.90;99.90
52965;DHT22;42923;53.220;6.528;2023-06-26T10:37:18;24.70;99.90
52965;DHT22;42923;53.220;6.528;2023-06-26T10:39:51;24.80;99.90
52965;DHT22;42923;53.220;6.528;2023-06-26T10:42:19;25.00;99.90
52965;DHT22;42923;53.220;6.528;2023-06-26T10:44:46;25.00;99.90
52965;DHT22;42923;53.220;6.528;2023-06-26T10:47:33;25.20;99.90
52965;DHT22;42923;53.220;6.528;2023-06-26T10:55:51;25.60;99.90
52965;DHT22;42923;53.220;6.528;2023-06-26T10:58:49;25.10;99.90
52965;DHT22;42923;53.220;6.528;2023-06-26T11:01:17;25.10;99.90
52965;DHT22;42923;53.220;6.528;2023-06-26T11:06:17;25.00;98.40
52965;DHT22;42923;53.220;6.528;2023-06-26T11:08:53;24.80;99.70
52965;DHT22;42923;53.220;6.528;2023-06-26T11:11:54;25.00;99.90
52965;DHT22;42923;53.220;6.528;2023-06-26T11:14:06;25.10;99.80
52965;DHT22;42923;53.220;6.528;2023-06-26T11:16:33;25.10;99.80
52965;DHT22;42923;53.220;6.528;2023-06-26T11:18:59;25.30;99.90
52965;DHT22;42923;53.220;6.528;2023-06-26T11:21:25;25.60;99.90
52965;DHT22;42923;53.220;6.528;2023-06-26T11:23:52;25.70;99.90
52965;DHT22;42923;53.220;6.528;2023-06-26T11:26:20;25.70;97.50
52965;DHT22;42923;53.220;6.528;2023-06-26T11:28:50;25.80;97.90
52965;DHT22;42923;53.220;6.528;2023-06-26T11:31:28;26.00;97.00
52965;DHT22;42923;53.220;6.528;2023-06-26T11:33:56;26.00;94.10
52965;DHT22;42923;53.220;6.528;2023-06-26T11:36:24;25.90;93.80
52965;DHT22;42923;53.220;6.528;2023-06-26T11:38:58;25.90;93.20
52965;DHT22;42923;53.220;6.528;2023-06-26T11:41:31;26.00;92.40
52965;DHT22;42923;53.220;6.528;2023-06-26T11:44:05;25.60;93.00
52965;DHT22;42923;53.220;6.528;2023-06-26T11:46:31;25.60;93.70
52965;DHT22;42923;53.220;6.528;2023-06-26T11:48:57;25.60;91.90
52965;DHT22;42923;53.220;6.528;2023-06-26T11:51:23;25.40;90.20
52965;DHT22;42923;53.220;6.528;2023-06-26T11:53:49;25.20;91.70
52965;DHT22;42923;53.220;6.528;2023-06-26T11:56:16;25.40;92.50
52965;DHT22;42923;53.220;6.528;2023-06-26T11:59:02;25.30;91.80
52965;DHT22;42923;53.220;6.528;2023-06-26T12:01:37;25.50;91.70
52965;DHT22;42923;53.220;6.528;2023-06-26T12:04:05;25.50;90.50
52965;DHT22;42923;53.220;6.528;2023-06-26T12:06:36;25.40;90.20
52965;DHT22;42923;53.220;6.528;2023-06-26T12:09:05;25.50;90.70
52965;DHT22;42923;53.220;6.528;2023-06-26T12:11:32;25.60;90.50
52965;DHT22;42923;53.220;6.528;2023-06-26T12:14:00;25.80;90.00
52965;DHT22;42923;53.220;6.528;2023-06-26T12:16:28;25.70;87.10
52965;DHT22;42923;53.220;6.528;2023-06-26T12:24:13;25.50;87.40
52965;DHT22;42923;53.220;6.528;2023-06-26T12:26:42;25.60;86.10
52965;DHT22;42923;53.220;6.528;2023-06-26T12:29:11;25.60;84.30
52965;DHT22;42923;53.220;6.528;2023-06-26T12:31:45;25.40;84.60
52965;DHT22;42923;53.220;6.528;2023-06-26T12:34:13;25.30;84.30
52965;DHT22;42923;53.220;6.528;2023-06-26T12:36:43;25.20;83.60
52965;DHT22;42923;53.220;6.528;2023-06-26T12:39:11;25.20;84.00
52965;DHT22;42923;53.220;6.528;2023-06-26T12:41:45;25.30;83.20
52965;DHT22;42923;53.220;6.528;2023-06-26T12:44:21;25.60;83.40
52965;DHT22;42923;53.220;6.528;2023-06-26T12:46:49;26.20;83.50
52965;DHT22;42923;53.220;6.528;2023-06-26T12:49:16;26.60;80.80
52965;DHT22;42923;53.220;6.528;2023-06-26T12:51:41;26.70;78.50
52965;DHT22;42923;53.220;6.528;2023-06-26T12:54:08;26.30;80.00
52965;DHT22;42923;53.220;6.528;2023-06-26T12:56:35;26.20;79.50
52965;DHT22;42923;53.220;6.528;2023-06-26T12:59:00;26.20;79.80
52965;DHT22;42923;53.220;6.528;2023-06-26T13:01:26;26.20;79.30
52965;DHT22;42923;53.220;6.528;2023-06-26T13:03:54;26.00;78.30
52965;DHT22;42923;53.220;6.528;2023-06-26T13:06:20;25.60;78.10
52965;DHT22;42923;53.220;6.528;2023-06-26T13:08:46;25.30;78.60
52965;DHT22;42923;53.220;6.528;2023-06-26T13:11:11;25.10;79.70
52965;DHT22;42923;53.220;6.528;2023-06-26T13:13:37;25.30;80.50
52965;DHT22;42923;53.220;6.528;2023-06-26T13:16:03;25.20;79.90
52965;DHT22;42923;53.220;6.528;2023-06-26T13:18:29;25.30;81.00
52965;DHT22;42923;53.220;6.528;2023-06-26T13:20:54;25.30;79.00
52965;DHT22;42923;53.220;6.528;2023-06-26T13:23:20;24.90;77.70
52965;DHT22;42923;53.220;6.528;2023-06-26T13:25:46;24.40;78.80
52965;DHT22;42923;53.220;6.528;2023-06-26T13:28:12;24.20;81.40
52965;DHT22;42923;53.220;6.528;2023-06-26T13:30:37;24.70;83.00
52965;DHT22;42923;53.220;6.528;2023-06-26T13:33:03;25.20;82.80
52965;DHT22;42923;53.220;6.528;2023-06-26T13:35:29;25.70;81.90
52965;DHT22;42923;53.220;6.528;2023-06-26T13:37:55;26.00;80.00
52965;DHT22;42923;53.220;6.528;2023-06-26T13:40:20;26.30;80.50
52965;DHT22;42923;53.220;6.528;2023-06-26T13:42:46;26.60;78.60
52965;DHT22;42923;53.220;6.528;2023-06-26T13:45:12;26.50;77.40
52965;DHT22;42923;53.220;6.528;2023-06-26T13:47:38;26.30;76.20
52965;DHT22;42923;53.220;6.528;2023-06-26T13:50:08;26.20;76.50
52965;DHT22;42923;53.220;6.528;2023-06-26T13:52:35;25.80;76.90
52965;DHT22;42923;53.220;6.528;2023-06-26T13:55:01;25.30;77.20
52965;DHT22;42923;53.220;6.528;2023-06-26T13:57:30;24.60;78.90
52965;DHT22;42923;53.220;6.528;2023-06-26T13:59:56;23.80;81.70
52965;DHT22;42923;53.220;6.528;2023-06-26T14:02:22;23.50;83.90
52965;DHT22;42923;53.220;6.528;2023-06-26T14:04:48;23.50;86.40
52965;DHT22;42923;53.220;6.528;2023-06-26T14:07:14;23.30;87.20
52965;DHT22;42923;53.220;6.528;2023-06-26T14:09:40;22.90;89.70
52965;DHT22;42923;53.220;6.528;2023-06-26T14:12:07;22.50;92.60
52965;DHT22;42923;53.220;6.528;2023-06-26T14:14:33;22.50;95.20
52965;DHT22;42923;53.220;6.528;2023-06-26T14:16:58;22.40;97.50
52965;DHT22;42923;53.220;6.528;2023-06-26T14:19:25;22.30;99.50
52965;DHT22;42923;53.220;6.528;2023-06-26T14:21:52;22.30;99.90
52965;DHT22;42923;53.220;6.528;2023-06-26T14:24:17;22.20;99.90
52965;DHT22;42923;53.220;6.528;2023-06-26T14:26:43;22.10;99.90
52965;DHT22;42923;53.220;6.528;2023-06-26T14:29:09;22.40;99.90
52965;DHT22;42923;53.220;6.528;2023-06-26T14:31:34;22.90;99.90
52965;DHT22;42923;53.220;6.528;2023-06-26T14:34:00;23.00;99.90
52965;DHT22;42923;53.220;6.528;2023-06-26T14:36:28;23.00;99.20
52965;DHT22;42923;53.220;6.528;2023-06-26T14:38:56;22.70;99.90
52965;DHT22;42923;53.220;6.528;2023-06-26T14:41:22;22.70;99.90
52965;DHT22;42923;53.220;6.528;2023-06-26T14:43:48;22.90;99.90
52965;DHT22;42923;53.220;6.528;2023-06-26T14:46:14;22.80;99.90
52965;DHT22;42923;53.220;6.528;2023-06-26T14:48:39;22.50;99.90
52965;DHT22;42923;53.220;6.528;2023-06-26T14:51:05;22.20;99.90
52965;DHT22;42923;53.220;6.528;2023-06-26T14:53:31;22.00;99.90
52965;DHT22;42923;53.220;6.528;2023-06-26T14:55:57;21.80;99.90
52965;DHT22;42923;53.220;6.528;2023-06-26T14:58:22;21.70;99.90
52965;DHT22;42923;53.220;6.528;2023-06-26T15:00:48;21.60;99.90
52965;DHT22;42923;53.220;6.528;2023-06-26T15:03:14;21.40;99.90
52965;DHT22;42923;53.220;6.528;2023-06-26T15:05:40;21.50;99.90
52965;DHT22;42923;53.220;6.528;2023-06-26T15:08:05;21.80;99.90
52965;DHT22;42923;53.220;6.528;2023-06-26T15:10:31;22.00;99.90
52965;DHT22;42923;53.220;6.528;2023-06-26T15:12:57;22.10;99.90
52965;DHT22;42923;53.220;6.528;2023-06-26T15:15:24;21.90;99.90
52965;DHT22;42923;53.220;6.528;2023-06-26T15:17:50;21.70;99.90
52965;DHT22;42923;53.220;6.528;2023-06-26T15:20:16;21.50;99.90
52965;DHT22;42923;53.220;6.528;2023-06-26T15:22:42;21.50;99.90
52965;DHT22;42923;53.220;6.528;2023-06-26T15:25:07;21.40;99.90
52965;DHT22;42923;53.220;6.528;2023-06-26T15:27:33;21.80;99.90
52965;DHT22;42923;53.220;6.528;2023-06-26T15:29:59;22.10;99.90
52965;DHT22;42923;53.220;6.528;2023-06-26T15:32:24;22.40;99.90
52965;DHT22;42923;53.220;6.528;2023-06-26T15:34:50;22.40;99.90
52965;DHT22;42923;53.220;6.528;2023-06-26T15:37:16;22.10;99.90
52965;DHT22;42923;53.220;6.528;2023-06-26T15:39:42;22.10;99.90
52965;DHT22;42923;53.220;6.528;2023-06-26T15:42:08;22.50;99.90
52965;DHT22;42923;53.220;6.528;2023-06-26T15:44:34;22.50;99.90
52965;DHT22;42923;53.220;6.528;2023-06-26T15:47:00;22.40;99.90
52965;DHT22;42923;53.220;6.528;2023-06-26T15:49:25;22.80;99.90